Time;durP1;ratioP1;P1;durP2;ratioP2;P2;SDS_P1;SDS_P2;PMS_P1;PMS_P2;Temp;Humidity;BMP_temperature;BMP_pressure;BME280_temperature;BME280_humidity;BME280_pressure;Samples;Min_cycle;Max_cycle;Signal;HPM_P1;HPM_P2
2023/01/29 00:01:40;;;;;;;;;50.50;43.25;;;;;;;;4917125;28;47185;-75
2023/01/29 00:04:05;;;;;;;;;52.25;42.00;;;;;;;;4917968;28;45382;-75
2023/01/29 00:06:31;;;;;;;;;50.25;42.75;;;;;;;;4920647;28;45342;-75
2023/01/29 00:08:56;;;;;;;;;48.50;43.00;;;;;;;;4920862;28;45358;-75
2023/01/29 00:11:22;;;;;;;;;50.25;40.25;;;;;;;;4920479;28;46034;-75
2023/01/29 00:13:48;;;;;;;;;51.25;42.00;;;;;;;;4920598;28;45186;-75
2023/01/29 00:16:14;;;;;;;;;50.25;42.75;;;;;;;;4920597;28;45278;-75
2023/01/29 00:18:39;;;;;;;;;59.00;44.25;;;;;;;;4920504;28;45259;-76
2023/01/29 00:21:12;;;;;;;;;55.75;46.75;;;;;;;;4919059;28;46228;-75
2023/01/29 00:23:37;;;;;;;;;60.50;49.50;;;;;;;;4920350;28;45298;-75
2023/01/29 00:26:02;;;;;;;;;54.50;45.50;;;;;;;;4920699;28;45283;-75
2023/01/29 00:28:28;;;;;;;;;60.25;49.25;;;;;;;;4920347;28;45447;-75
2023/01/29 00:30:53;;;;;;;;;49.25;44.00;;;;;;;;4918840;28;47787;-75
2023/01/29 00:33:18;;;;;;;;;56.50;48.00;;;;;;;;4918946;28;45360;-75
2023/01/29 00:35:43;;;;;;;;;57.00;45.50;;;;;;;;4920259;28;45493;-75
2023/01/29 00:38:09;;;;;;;;;59.00;48.75;;;;;;;;4920119;28;45312;-75
2023/01/29 00:44:56;;;;;;;;;61.25;48.25;;;;;;;;4919967;28;47220;-75
2023/01/29 00:46:05;;;;;;;;;64.50;51.75;;;;;;;;4918995;28;45223;-75
2023/01/29 00:48:30;;;;;;;;;61.25;48.25;;;;;;;;4919645;28;45340;-75
2023/01/29 00:50:56;;;;;;;;;57.50;47.25;;;;;;;;4919640;28;45320;-75
2023/01/29 00:53:21;;;;;;;;;63.50;47.25;;;;;;;;4903513;28;45427;-75
2023/01/29 00:55:46;;;;;;;;;55.75;47.25;;;;;;;;4900953;28;45513;-75
2023/01/29 00:58:11;;;;;;;;;65.50;52.25;;;;;;;;4899715;29;45350;-75
2023/01/29 01:00:36;;;;;;;;;64.75;48.00;;;;;;;;4900722;28;46186;-75
2023/01/29 01:03:05;;;;;;;;;59.50;47.50;;;;;;;;4900367;28;45491;-75
2023/01/29 01:05:30;;;;;;;;;67.25;54.25;;;;;;;;4900681;28;45346;-75
2023/01/29 01:07:56;;;;;;;;;67.00;54.25;;;;;;;;4900874;28;45322;-75
2023/01/29 01:10:23;;;;;;;;;61.00;49.00;;;;;;;;4899266;28;48318;-75
2023/01/29 01:12:56;;;;;;;;;63.75;50.75;;;;;;;;4900619;29;45313;-75
2023/01/29 01:15:22;;;;;;;;;66.00;50.00;;;;;;;;4900083;28;45364;-76
2023/01/29 01:17:50;;;;;;;;;66.50;49.75;;;;;;;;4900426;28;45510;-75
2023/01/29 01:20:16;;;;;;;;;63.50;50.00;;;;;;;;4900389;28;46242;-75
2023/01/29 01:22:41;;;;;;;;;61.50;45.75;;;;;;;;4899255;29;45757;-75
2023/01/29 01:25:06;;;;;;;;;60.75;49.00;;;;;;;;4900380;28;45374;-74
2023/01/29 01:27:33;;;;;;;;;66.75;55.50;;;;;;;;4900319;28;45525;-75
2023/01/29 01:29:58;;;;;;;;;65.00;51.00;;;;;;;;4900598;28;46280;-75
2023/01/29 01:32:24;;;;;;;;;61.75;49.75;;;;;;;;4900098;28;45664;-75
2023/01/29 01:34:51;;;;;;;;;62.00;51.00;;;;;;;;4898851;28;45413;-75
2023/01/29 01:37:16;;;;;;;;;60.75;50.50;;;;;;;;4900369;28;45299;-75
2023/01/29 01:39:41;;;;;;;;;60.50;49.25;;;;;;;;4900054;28;45390;-75
2023/01/29 01:42:13;;;;;;;;;66.00;51.00;;;;;;;;4899952;28;45366;-75
2023/01/29 01:44:55;;;;;;;;;62.25;49.25;;;;;;;;4898955;28;45348;-75
2023/01/29 01:47:34;;;;;;;;;59.75;44.75;;;;;;;;4900102;28;45442;-75
2023/01/29 01:50:07;;;;;;;;;62.25;46.50;;;;;;;;4900201;28;46429;-75
2023/01/29 01:52:34;;;;;;;;;64.50;50.75;;;;;;;;4909553;28;45343;-75
2023/01/29 01:55:00;;;;;;;;;63.25;51.25;;;;;;;;4919037;28;45378;-75
2023/01/29 01:57:25;;;;;;;;;66.50;54.00;;;;;;;;4917764;28;45649;-75
2023/01/29 01:59:54;;;;;;;;;60.50;49.75;;;;;;;;4917569;28;46508;-75
2023/01/29 02:10:44;;;;;;;;;63.25;48.75;;;;;;;;4918668;28;45744;-76
2023/01/29 02:13:09;;;;;;;;;59.50;47.75;;;;;;;;4917468;28;45335;-76
2023/01/29 02:15:35;;;;;;;;;63.00;48.25;;;;;;;;4918414;28;45278;-75
2023/01/29 02:18:00;;;;;;;;;62.00;48.75;;;;;;;;4919670;28;45251;-76
2023/01/29 02:20:27;;;;;;;;;61.75;47.00;;;;;;;;4919455;28;45968;-76
2023/01/29 02:23:11;;;;;;;;;57.75;48.25;;;;;;;;4920032;28;45277;-75
2023/01/29 02:25:47;;;;;;;;;58.75;47.50;;;;;;;;4919631;28;45268;-76
2023/01/29 02:28:15;;;;;;;;;60.50;45.75;;;;;;;;4917850;28;45352;-76
2023/01/29 02:31:08;;;;;;;;;59.25;48.25;;;;;;;;4918439;28;45501;-76
2023/01/29 02:33:51;;;;;;;;;57.50;44.75;;;;;;;;4896950;29;45577;-76
2023/01/29 02:36:20;;;;;;;;;57.25;44.75;;;;;;;;4881017;29;45450;-75
2023/01/29 02:38:50;;;;;;;;;57.25;46.50;;;;;;;;4881230;29;45585;-75
2023/01/29 02:41:19;;;;;;;;;68.00;53.75;;;;;;;;4897181;29;46130;-76
2023/01/29 02:43:46;;;;;;;;;66.50;53.00;;;;;;;;4896573;29;45456;-76
2023/01/29 02:46:22;;;;;;;;;66.25;53.75;;;;;;;;4897037;29;45427;-76
2023/01/29 02:48:52;;;;;;;;;62.25;48.50;;;;;;;;4880729;29;45625;-76
2023/01/29 02:51:23;;;;;;;;;65.00;48.50;;;;;;;;4896709;29;45496;-76
2023/01/29 02:53:56;;;;;;;;;62.25;52.75;;;;;;;;4862075;29;45395;-76
2023/01/29 02:56:25;;;;;;;;;62.50;48.75;;;;;;;;4862343;29;45518;-76
2023/01/29 02:58:53;;;;;;;;;62.50;50.00;;;;;;;;4877606;29;45353;-76
2023/01/29 03:01:18;;;;;;;;;67.50;53.50;;;;;;;;4877937;29;46456;-76
2023/01/29 03:03:49;;;;;;;;;56.75;47.00;;;;;;;;4877726;29;45560;-76
2023/01/29 03:06:27;;;;;;;;;52.75;44.75;;;;;;;;4877861;29;45260;-76
2023/01/29 03:08:52;;;;;;;;;60.75;49.50;;;;;;;;4877955;29;45500;-76
2023/01/29 03:11:19;;;;;;;;;61.25;51.00;;;;;;;;4896599;29;45503;-76
2023/01/29 03:13:47;;;;;;;;;62.75;50.25;;;;;;;;4898437;29;45414;-75
2023/01/29 03:16:17;;;;;;;;;71.25;55.75;;;;;;;;4899132;28;45264;-76
2023/01/29 03:18:45;;;;;;;;;59.00;50.75;;;;;;;;4899074;28;45386;-76
2023/01/29 03:32:18;;;;;;;;;62.00;50.00;;;;;;;;4898809;29;45800;-75
2023/01/29 03:34:47;;;;;;;;;59.75;50.25;;;;;;;;4898732;28;45294;-76
2023/01/29 03:37:15;;;;;;;;;63.75;53.50;;;;;;;;4900433;28;45371;-75
2023/01/29 03:39:40;;;;;;;;;61.75;51.75;;;;;;;;4900532;28;45229;-76
2023/01/29 03:42:15;;;;;;;;;63.25;51.50;;;;;;;;4902185;28;47331;-76
2023/01/29 03:44:40;;;;;;;;;59.75;48.75;;;;;;;;4902348;28;45318;-76
2023/01/29 03:47:17;;;;;;;;;68.25;54.25;;;;;;;;4902055;28;45271;-76
2023/01/29 03:50:00;;;;;;;;;52.00;44.00;;;;;;;;4901685;28;45348;-76
2023/01/29 03:52:44;;;;;;;;;57.75;48.00;;;;;;;;4910352;28;45248;-76
2023/01/29 03:55:13;;;;;;;;;64.50;52.00;;;;;;;;4921478;28;45341;-76
2023/01/29 03:57:44;;;;;;;;;64.00;52.75;;;;;;;;4920702;28;45287;-76
2023/01/29 04:00:14;;;;;;;;;62.75;50.00;;;;;;;;4920701;28;45403;-76
2023/01/29 04:02:42;;;;;;;;;67.50;55.00;;;;;;;;4920723;28;45524;-76
2023/01/29 04:05:12;;;;;;;;;66.25;52.25;;;;;;;;4920250;28;45302;-76
2023/01/29 04:07:39;;;;;;;;;74.00;55.00;;;;;;;;4920587;28;45359;-76
2023/01/29 04:10:08;;;;;;;;;58.25;47.25;;;;;;;;4920739;28;45339;-76
2023/01/29 04:12:39;;;;;;;;;65.25;51.50;;;;;;;;4920120;28;46944;-76
2023/01/29 04:15:08;;;;;;;;;60.25;49.50;;;;;;;;4920303;28;45363;-76
2023/01/29 04:17:38;;;;;;;;;58.25;49.50;;;;;;;;4920474;28;45368;-76
2023/01/29 04:20:04;;;;;;;;;70.25;53.00;;;;;;;;4920709;28;45417;-76
2023/01/29 04:22:33;;;;;;;;;61.00;47.25;;;;;;;;4920283;28;46224;-75
2023/01/29 04:25:01;;;;;;;;;63.75;50.75;;;;;;;;4920218;28;45366;-76
2023/01/29 04:27:49;;;;;;;;;51.75;43.75;;;;;;;;4920703;28;45338;-75
2023/01/29 04:30:14;;;;;;;;;62.75;50.00;;;;;;;;4920041;28;45441;-75
2023/01/29 04:32:54;;;;;;;;;56.25;48.75;;;;;;;;4920289;28;45443;-75
2023/01/29 04:35:20;;;;;;;;;63.50;51.00;;;;;;;;4920145;28;45352;-75
2023/01/29 04:37:53;;;;;;;;;61.00;49.00;;;;;;;;4920161;28;45374;-75
2023/01/29 04:40:31;;;;;;;;;62.00;47.50;;;;;;;;4919926;28;45386;-75
2023/01/29 04:43:01;;;;;;;;;63.50;51.75;;;;;;;;4919924;28;45395;-75
2023/01/29 04:45:35;;;;;;;;;56.75;45.50;;;;;;;;4919918;28;45255;-75
2023/01/29 04:48:15;;;;;;;;;56.25;46.50;;;;;;;;4920257;28;45307;-75
2023/01/29 04:50:43;;;;;;;;;59.00;46.75;;;;;;;;4918049;28;45412;-75
2023/01/29 04:53:24;;;;;;;;;60.50;48.50;;;;;;;;4918337;28;48256;-75
2023/01/29 04:55:57;;;;;;;;;61.00;49.25;;;;;;;;4919604;28;45348;-75
2023/01/29 04:58:22;;;;;;;;;52.00;44.25;;;;;;;;4919944;28;45435;-75
2023/01/29 05:00:49;;;;;;;;;60.25;51.00;;;;;;;;4919820;28;45343;-75
2023/01/29 05:03:15;;;;;;;;;63.75;51.00;;;;;;;;4918474;28;45644;-75
2023/01/29 05:05:41;;;;;;;;;56.25;47.00;;;;;;;;4919747;28;45689;-75
2023/01/29 05:08:07;;;;;;;;;55.75;46.50;;;;;;;;4919746;28;45262;-75
2023/01/29 05:10:34;;;;;;;;;53.00;44.00;;;;;;;;4919678;28;45433;-75
2023/01/29 05:13:02;;;;;;;;;62.75;48.25;;;;;;;;4919496;28;46210;-75
2023/01/29 05:15:37;;;;;;;;;60.25;48.00;;;;;;;;4919432;28;45267;-75
2023/01/29 05:18:03;;;;;;;;;61.50;50.00;;;;;;;;4919987;28;45345;-75
2023/01/29 05:20:32;;;;;;;;;59.00;50.50;;;;;;;;4919549;28;45450;-75
2023/01/29 05:22:57;;;;;;;;;64.75;51.00;;;;;;;;4919530;28;45435;-73
2023/01/29 05:25:24;;;;;;;;;64.50;52.00;;;;;;;;4919558;28;45472;-73
2023/01/29 05:28:06;;;;;;;;;58.50;47.00;;;;;;;;4920435;28;45434;-74
2023/01/29 05:30:32;;;;;;;;;61.50;49.25;;;;;;;;4919295;28;45273;-73
2023/01/29 05:32:57;;;;;;;;;62.50;49.75;;;;;;;;4919069;28;47015;-73
2023/01/29 05:35:22;;;;;;;;;61.75;49.00;;;;;;;;4920024;28;45522;-73
2023/01/29 05:37:47;;;;;;;;;59.25;49.00;;;;;;;;4918946;28;45335;-74
2023/01/29 05:40:13;;;;;;;;;61.75;48.00;;;;;;;;4919029;28;45479;-74
2023/01/29 05:42:38;;;;;;;;;69.25;52.75;;;;;;;;4919167;28;45377;-73
2023/01/29 05:45:04;;;;;;;;;59.75;49.50;;;;;;;;4918919;28;45329;-74
2023/01/29 05:47:29;;;;;;;;;59.25;46.00;;;;;;;;4919219;28;45329;-74
2023/01/29 05:49:54;;;;;;;;;60.50;50.00;;;;;;;;4919370;28;45366;-74
2023/01/29 05:52:19;;;;;;;;;58.50;47.00;;;;;;;;4917128;28;45622;-74
2023/01/29 05:54:44;;;;;;;;;56.75;46.00;;;;;;;;4918750;28;45414;-74
2023/01/29 05:57:10;;;;;;;;;63.25;48.25;;;;;;;;4919293;28;45287;-74
2023/01/29 05:59:35;;;;;;;;;47.25;41.00;;;;;;;;4918949;28;45345;-74
2023/01/29 06:02:00;;;;;;;;;61.75;49.25;;;;;;;;4917843;28;47266;-74
2023/01/29 06:04:25;;;;;;;;;58.75;47.75;;;;;;;;4917537;28;45375;-74
2023/01/29 06:06:50;;;;;;;;;59.25;48.25;;;;;;;;4917199;28;45278;-74
2023/01/29 06:09:16;;;;;;;;;53.50;42.25;;;;;;;;4919080;28;45410;-75
2023/01/29 06:11:41;;;;;;;;;60.00;47.00;;;;;;;;4917279;28;48784;-73
2023/01/29 06:14:06;;;;;;;;;59.75;46.00;;;;;;;;4918784;28;45375;-75
2023/01/29 06:16:31;;;;;;;;;59.75;49.50;;;;;;;;4918847;28;45330;-75
2023/01/29 06:18:57;;;;;;;;;62.25;49.25;;;;;;;;4917436;28;45336;-75
2023/01/29 06:21:22;;;;;;;;;57.50;46.50;;;;;;;;4918461;28;46425;-75
2023/01/29 06:23:47;;;;;;;;;55.25;42.75;;;;;;;;4917201;28;45392;-75
2023/01/29 06:26:14;;;;;;;;;60.50;45.25;;;;;;;;4918564;28;45284;-74
2023/01/29 06:28:39;;;;;;;;;52.75;42.00;;;;;;;;4918746;28;45262;-75
2023/01/29 06:31:05;;;;;;;;;59.50;48.25;;;;;;;;4918465;28;45964;-77
2023/01/29 06:33:30;;;;;;;;;57.25;46.75;;;;;;;;4918361;28;45354;-76
2023/01/29 06:35:56;;;;;;;;;23.00;17.50;;;;;;;;4918352;28;45351;-75
2023/01/29 06:38:22;;;;;;;;;51.75;46.25;;;;;;;;4918381;28;45334;-77
2023/01/29 06:40:47;;;;;;;;;53.50;45.25;;;;;;;;4918224;28;46197;-74
2023/01/29 06:43:12;;;;;;;;;54.50;46.75;;;;;;;;4918398;28;45541;-74
2023/01/29 06:45:37;;;;;;;;;62.00;52.00;;;;;;;;4918429;28;45382;-74
2023/01/29 06:48:03;;;;;;;;;57.50;45.50;;;;;;;;4918518;28;45304;-74
2023/01/29 06:50:28;;;;;;;;;61.50;51.00;;;;;;;;4916577;28;46861;-75
2023/01/29 06:52:53;;;;;;;;;56.75;47.75;;;;;;;;4916778;28;46101;-74
2023/01/29 06:55:18;;;;;;;;;67.75;52.00;;;;;;;;4918188;28;45361;-75
2023/01/29 06:57:43;;;;;;;;;65.00;53.50;;;;;;;;4916922;28;45429;-74
2023/01/29 07:00:09;;;;;;;;;63.75;51.00;;;;;;;;4917961;28;46095;-74
2023/01/29 07:02:34;;;;;;;;;61.50;49.00;;;;;;;;4918132;28;45362;-74
2023/01/29 07:04:59;;;;;;;;;54.75;43.75;;;;;;;;4917808;28;45325;-74
2023/01/29 07:07:25;;;;;;;;;63.50;50.75;;;;;;;;4918145;28;45747;-74
2023/01/29 07:09:50;;;;;;;;;60.25;49.00;;;;;;;;4917471;28;46487;-74
2023/01/29 07:12:15;;;;;;;;;64.50;49.75;;;;;;;;4917336;28;45406;-75
2023/01/29 07:14:40;;;;;;;;;57.25;47.50;;;;;;;;4918061;28;45424;-74
2023/01/29 07:17:05;;;;;;;;;94.50;75.25;;;;;;;;4917845;28;45327;-75
2023/01/29 07:19:31;;;;;;;;;62.25;49.75;;;;;;;;4908413;28;46116;-75
2023/01/29 07:21:56;;;;;;;;;51.75;43.25;;;;;;;;4898775;29;45409;-75
2023/01/29 07:24:21;;;;;;;;;57.25;46.50;;;;;;;;4898845;28;45390;-75
2023/01/29 07:26:46;;;;;;;;;58.25;44.00;;;;;;;;4898803;28;45446;-74
2023/01/29 07:29:11;;;;;;;;;56.25;45.75;;;;;;;;4898511;28;46120;-75
2023/01/29 07:31:37;;;;;;;;;63.75;47.50;;;;;;;;4898509;28;45305;-74
2023/01/29 07:34:02;;;;;;;;;59.25;48.25;;;;;;;;4898605;28;45402;-75
2023/01/29 07:36:28;;;;;;;;;59.00;48.50;;;;;;;;4898468;28;45447;-75
2023/01/29 07:38:53;;;;;;;;;56.50;47.25;;;;;;;;4898507;29;45322;-74
2023/01/29 07:41:19;;;;;;;;;59.50;49.50;;;;;;;;4898532;28;45335;-74
2023/01/29 07:43:44;;;;;;;;;55.25;44.75;;;;;;;;4898427;28;45268;-74
2023/01/29 07:46:09;;;;;;;;;53.50;47.00;;;;;;;;4912007;28;45451;-75
2023/01/29 07:48:34;;;;;;;;;51.50;43.75;;;;;;;;4916759;28;46172;-75
2023/01/29 07:51:00;;;;;;;;;64.25;49.50;;;;;;;;4917001;28;45410;-75
2023/01/29 07:53:26;;;;;;;;;67.00;50.25;;;;;;;;4917387;28;45334;-75
2023/01/29 07:55:51;;;;;;;;;71.00;57.00;;;;;;;;4917293;28;45350;-75
2023/01/29 07:58:16;;;;;;;;;68.00;53.25;;;;;;;;4917276;28;45378;-75
2023/01/29 08:00:42;;;;;;;;;69.75;52.75;;;;;;;;4917253;28;45405;-75
2023/01/29 08:03:12;;;;;;;;;70.25;56.00;;;;;;;;4916993;28;45379;-75
2023/01/29 08:05:37;;;;;;;;;74.50;56.25;;;;;;;;4915892;28;45327;-75
2023/01/29 08:08:03;;;;;;;;;67.25;55.00;;;;;;;;4917072;28;46245;-75
2023/01/29 08:10:28;;;;;;;;;56.50;44.50;;;;;;;;4917175;28;45390;-74
2023/01/29 08:12:54;;;;;;;;;63.00;52.00;;;;;;;;4917316;28;45265;-75
2023/01/29 08:15:20;;;;;;;;;60.00;45.75;;;;;;;;4917618;28;45296;-75
2023/01/29 08:17:45;;;;;;;;;62.75;48.00;;;;;;;;4915863;28;45299;-74
2023/01/29 08:20:10;;;;;;;;;57.75;46.75;;;;;;;;4917521;28;45375;-75
2023/01/29 08:22:36;;;;;;;;;64.25;51.75;;;;;;;;4917381;28;45279;-75
2023/01/29 08:25:01;;;;;;;;;54.25;45.25;;;;;;;;4918491;28;45457;-74
2023/01/29 08:27:26;;;;;;;;;62.50;51.00;;;;;;;;4919385;28;46925;-76
2023/01/29 08:29:51;;;;;;;;;62.25;50.50;;;;;;;;4920397;28;45335;-75
2023/01/29 08:32:17;;;;;;;;;60.75;48.00;;;;;;;;4919838;28;45290;-75
2023/01/29 08:34:42;;;;;;;;;58.25;45.25;;;;;;;;4919634;28;45498;-75
2023/01/29 08:37:07;;;;;;;;;65.75;52.25;;;;;;;;4922115;28;45230;-76
2023/01/29 08:39:32;;;;;;;;;58.75;48.25;;;;;;;;4920325;28;45287;-75
2023/01/29 08:41:58;;;;;;;;;61.50;50.50;;;;;;;;4920242;28;45358;-74
2023/01/29 08:44:23;;;;;;;;;59.50;50.50;;;;;;;;4921193;28;45452;-74
2023/01/29 08:46:48;;;;;;;;;68.25;50.50;;;;;;;;4919072;28;45631;-75
2023/01/29 08:49:13;;;;;;;;;62.25;53.00;;;;;;;;4920775;28;45378;-75
2023/01/29 08:51:38;;;;;;;;;60.75;49.50;;;;;;;;4920552;28;45283;-75
2023/01/29 08:54:04;;;;;;;;;57.00;45.25;;;;;;;;4920197;28;45361;-75
2023/01/29 08:56:29;;;;;;;;;65.50;53.00;;;;;;;;4920109;28;45520;-76
2023/01/29 08:58:54;;;;;;;;;64.50;50.50;;;;;;;;4918797;28;45343;-75
2023/01/29 09:01:19;;;;;;;;;67.00;56.00;;;;;;;;4920140;28;45322;-77
2023/01/29 09:03:45;;;;;;;;;64.75;54.00;;;;;;;;4920309;28;45305;-76
2023/01/29 09:06:11;;;;;;;;;66.00;52.75;;;;;;;;4918641;28;45435;-78
2023/01/29 09:08:37;;;;;;;;;61.75;50.50;;;;;;;;4920292;28;45378;-77
2023/01/29 09:11:03;;;;;;;;;64.25;54.00;;;;;;;;4920892;28;45498;-79
2023/01/29 09:13:28;;;;;;;;;60.00;48.75;;;;;;;;4920409;28;45496;-77
2023/01/29 09:15:53;;;;;;;;;59.75;46.00;;;;;;;;4919552;28;45425;-76
2023/01/29 09:18:20;;;;;;;;;64.25;51.00;;;;;;;;4919922;28;45477;-77
2023/01/29 09:20:46;;;;;;;;;59.25;46.25;;;;;;;;4920228;28;45342;-78
2023/01/29 09:23:11;;;;;;;;;57.75;47.75;;;;;;;;4918886;28;45362;-77
2023/01/29 09:25:37;;;;;;;;;62.75;51.75;;;;;;;;4920174;28;45364;-78
2023/01/29 09:28:02;;;;;;;;;51.75;44.25;;;;;;;;4920249;28;45346;-76
2023/01/29 09:30:27;;;;;;;;;67.75;52.75;;;;;;;;4920298;28;45285;-76
2023/01/29 09:32:53;;;;;;;;;98.25;91.00;;;;;;;;4920380;28;45452;-77
2023/01/29 09:35:18;;;;;;;;;58.25;44.50;;;;;;;;4919768;28;45305;-78
2023/01/29 09:37:46;;;;;;;;;70.00;56.00;;;;;;;;4920584;28;45298;-77
2023/01/29 09:40:21;;;;;;;;;54.25;42.00;;;;;;;;4920364;28;45311;-77
2023/01/29 09:42:50;;;;;;;;;54.50;44.00;;;;;;;;4918669;28;45346;-77
2023/01/29 09:45:23;;;;;;;;;49.75;42.25;;;;;;;;4919121;28;45527;-77
2023/01/29 09:47:49;;;;;;;;;39.25;35.25;;;;;;;;4920061;28;45295;-77
2023/01/29 09:50:17;;;;;;;;;52.00;42.75;;;;;;;;4919855;28;45343;-77
2023/01/29 09:52:45;;;;;;;;;53.75;42.75;;;;;;;;4919908;28;45287;-78
2023/01/29 09:55:21;;;;;;;;;46.50;41.25;;;;;;;;4919472;28;46579;-78
2023/01/29 09:58:13;;;;;;;;;51.00;41.00;;;;;;;;4919762;28;45337;-78
2023/01/29 10:00:50;;;;;;;;;42.00;37.00;;;;;;;;4918644;28;45541;-78
2023/01/29 10:03:22;;;;;;;;;43.75;38.75;;;;;;;;4919934;28;45664;-80
2023/01/29 10:06:04;;;;;;;;;41.25;37.75;;;;;;;;4919338;28;46181;-75
2023/01/29 10:08:40;;;;;;;;;48.75;37.75;;;;;;;;4919612;28;45286;-77
2023/01/29 10:11:26;;;;;;;;;53.50;39.50;;;;;;;;4919476;28;45397;-78
2023/01/29 10:13:54;;;;;;;;;50.50;41.75;;;;;;;;4917548;28;45588;-78
2023/01/29 10:16:42;;;;;;;;;50.25;38.25;;;;;;;;4919275;28;46395;-78
2023/01/29 10:19:10;;;;;;;;;48.25;42.25;;;;;;;;4919197;28;45391;-78
2023/01/29 10:21:54;;;;;;;;;54.75;45.25;;;;;;;;4919303;28;45230;-78
2023/01/29 10:24:22;;;;;;;;;54.00;42.50;;;;;;;;4919107;28;45229;-78
2023/01/29 10:26:48;;;;;;;;;51.75;43.75;;;;;;;;4919084;28;45380;-78
2023/01/29 10:29:17;;;;;;;;;49.50;40.25;;;;;;;;4918305;28;45372;-78
2023/01/29 10:31:44;;;;;;;;;59.25;46.75;;;;;;;;4918742;28;45387;-78
2023/01/29 10:34:12;;;;;;;;;53.75;42.50;;;;;;;;4918789;28;45457;-78
2023/01/29 10:36:38;;;;;;;;;52.00;41.50;;;;;;;;4918585;28;46234;-76
2023/01/29 10:39:03;;;;;;;;;53.00;38.75;;;;;;;;4919110;28;45468;-78
2023/01/29 10:41:43;;;;;;;;;48.00;40.25;;;;;;;;4919131;28;45363;-78
2023/01/29 10:44:27;;;;;;;;;47.00;39.00;;;;;;;;4918926;28;45332;-79
2023/01/29 10:47:13;;;;;;;;;48.50;38.25;;;;;;;;4917754;28;46035;-79
2023/01/29 10:49:56;;;;;;;;;49.00;41.75;;;;;;;;4917647;28;45405;-79
2023/01/29 10:52:24;;;;;;;;;49.75;40.50;;;;;;;;4918153;28;45525;-79
2023/01/29 10:54:56;;;;;;;;;50.50;42.50;;;;;;;;4917933;28;45508;-79
2023/01/29 10:57:33;;;;;;;;;39.00;35.50;;;;;;;;4917962;28;47091;-78
2023/01/29 11:00:05;;;;;;;;;49.25;41.25;;;;;;;;4916517;28;45342;-79
2023/01/29 11:02:32;;;;;;;;;49.00;43.00;;;;;;;;4918067;28;45314;-78
2023/01/29 11:04:57;;;;;;;;;50.25;40.00;;;;;;;;4916434;28;45533;-78
2023/01/29 11:07:23;;;;;;;;;46.00;39.25;;;;;;;;4917765;28;45444;-77
2023/01/29 11:09:59;;;;;;;;;49.00;41.50;;;;;;;;4918048;28;45302;-77
2023/01/29 11:12:29;;;;;;;;;56.75;45.25;;;;;;;;4917636;28;45388;-77
2023/01/29 11:14:58;;;;;;;;;49.75;41.75;;;;;;;;4918040;28;45407;-76
2023/01/29 11:17:24;;;;;;;;;51.75;43.75;;;;;;;;4917771;28;45295;-76
2023/01/29 11:19:51;;;;;;;;;56.75;44.00;;;;;;;;4917675;28;45334;-76
2023/01/29 11:22:18;;;;;;;;;53.75;42.25;;;;;;;;4917900;28;45408;-76
2023/01/29 11:24:44;;;;;;;;;45.25;37.00;;;;;;;;4916610;28;45628;-76
2023/01/29 11:27:24;;;;;;;;;41.50;38.25;;;;;;;;4917506;28;45833;-76
2023/01/29 11:29:51;;;;;;;;;53.25;42.00;;;;;;;;4917616;28;45430;-75
2023/01/29 11:32:22;;;;;;;;;52.50;39.50;;;;;;;;4917589;28;45281;-76
2023/01/29 11:35:04;;;;;;;;;47.00;39.75;;;;;;;;4917506;28;45490;-76
2023/01/29 11:37:34;;;;;;;;;47.00;41.00;;;;;;;;4917572;28;47547;-75
2023/01/29 11:39:59;;;;;;;;;49.00;37.25;;;;;;;;4917607;28;45393;-77
2023/01/29 11:42:29;;;;;;;;;42.50;38.75;;;;;;;;4917463;28;45389;-75
2023/01/29 11:44:54;;;;;;;;;40.50;34.75;;;;;;;;4917425;28;45316;-76
2023/01/29 11:47:22;;;;;;;;;36.75;34.25;;;;;;;;4915996;28;46262;-77
2023/01/29 11:49:59;;;;;;;;;40.00;35.50;;;;;;;;4917748;28;45402;-78
2023/01/29 11:52:33;;;;;;;;;32.75;30.25;;;;;;;;4917739;28;45352;-77
2023/01/29 11:55:01;;;;;;;;;36.00;32.75;;;;;;;;4918190;28;45423;-78
2023/01/29 11:57:32;;;;;;;;;47.50;40.00;;;;;;;;4919414;28;45326;-76
2023/01/29 12:00:24;;;;;;;;;40.50;37.00;;;;;;;;4919895;28;45397;-76
2023/01/29 12:02:52;;;;;;;;;40.75;36.00;;;;;;;;4920459;28;45336;-76
2023/01/29 12:05:19;;;;;;;;;36.50;34.75;;;;;;;;4921473;28;45430;-76
2023/01/29 12:07:47;;;;;;;;;39.25;35.75;;;;;;;;4920834;28;47240;-75
2023/01/29 12:10:28;;;;;;;;;60.25;48.75;;;;;;;;4920726;28;45232;-77
2023/01/29 12:13:02;;;;;;;;;54.00;43.50;;;;;;;;4921017;28;45249;-76
2023/01/29 12:15:27;;;;;;;;;49.00;41.50;;;;;;;;4920887;28;45482;-76
2023/01/29 12:18:03;;;;;;;;;44.00;38.00;;;;;;;;4919225;28;46349;-75
2023/01/29 12:20:33;;;;;;;;;35.50;33.50;;;;;;;;4919767;28;45352;-76
2023/01/29 12:23:02;;;;;;;;;41.00;37.00;;;;;;;;4919816;28;45564;-76
2023/01/29 12:25:40;;;;;;;;;42.50;37.00;;;;;;;;4920497;28;45386;-76
2023/01/29 12:28:05;;;;;;;;;32.00;29.25;;;;;;;;4920897;28;45364;-77
2023/01/29 12:30:37;;;;;;;;;31.25;29.00;;;;;;;;4920377;28;45284;-77
2023/01/29 12:33:13;;;;;;;;;30.75;28.50;;;;;;;;4920718;28;45294;-78
2023/01/29 12:35:47;;;;;;;;;24.75;23.25;;;;;;;;4919191;28;45627;-76
2023/01/29 12:38:19;;;;;;;;;21.75;19.75;;;;;;;;4919366;28;45505;-78
2023/01/29 12:41:23;;;;;;;;;20.50;17.00;;;;;;;;4920725;28;45418;-77
2023/01/29 12:43:52;;;;;;;;;16.75;14.25;;;;;;;;4883332;29;45392;-76
2023/01/29 12:46:21;;;;;;;;;26.25;22.25;;;;;;;;4899005;28;45538;-75
2023/01/29 12:48:48;;;;;;;;;18.75;16.75;;;;;;;;4899058;29;45342;-76
2023/01/29 12:51:16;;;;;;;;;65.00;51.50;;;;;;;;4898858;29;45497;-78
2023/01/29 12:54:08;;;;;;;;;15.25;13.50;;;;;;;;4898850;28;45419;-77
2023/01/29 12:56:52;;;;;;;;;14.75;13.50;;;;;;;;4896817;28;45444;-76
2023/01/29 12:59:27;;;;;;;;;15.25;15.25;;;;;;;;4899284;29;45385;-76
2023/01/29 13:02:15;;;;;;;;;14.25;12.00;;;;;;;;4898662;29;45338;-76
2023/01/29 13:04:47;;;;;;;;;31.75;29.25;;;;;;;;4899169;28;45366;-77
2023/01/29 13:07:14;;;;;;;;;12.25;8.00;;;;;;;;4898994;28;45284;-77
2023/01/29 13:09:43;;;;;;;;;15.00;13.25;;;;;;;;4899289;28;45414;-76
2023/01/29 13:12:13;;;;;;;;;19.25;17.50;;;;;;;;4898571;29;45291;-76
2023/01/29 13:14:45;;;;;;;;;17.50;14.75;;;;;;;;4900718;28;45313;-74
2023/01/29 13:17:34;;;;;;;;;23.50;22.25;;;;;;;;4920185;28;45390;-76
2023/01/29 13:20:03;;;;;;;;;20.00;19.25;;;;;;;;4916820;28;47385;-77
2023/01/29 13:22:32;;;;;;;;;13.50;13.50;;;;;;;;4919649;28;45251;-77
2023/01/29 13:24:57;;;;;;;;;43.00;36.75;;;;;;;;4918609;28;45298;-76
2023/01/29 13:27:30;;;;;;;;;15.75;15.00;;;;;;;;4920006;28;45246;-76
2023/01/29 13:29:56;;;;;;;;;30.25;27.00;;;;;;;;4918734;28;47285;-75
2023/01/29 13:32:26;;;;;;;;;23.50;21.00;;;;;;;;4918353;28;45381;-75
2023/01/29 13:34:53;;;;;;;;;18.75;15.75;;;;;;;;4919514;28;45356;-77
2023/01/29 13:37:23;;;;;;;;;14.50;13.75;;;;;;;;4919779;28;45326;-76
2023/01/29 13:39:51;;;;;;;;;22.50;22.50;;;;;;;;4919277;28;45456;-76
2023/01/29 13:42:18;;;;;;;;;17.50;15.00;;;;;;;;4918564;28;45434;-77
2023/01/29 13:44:47;;;;;;;;;11.25;10.75;;;;;;;;4918520;28;45434;-76
2023/01/29 13:47:20;;;;;;;;;11.50;8.25;;;;;;;;4919610;28;45356;-77
2023/01/29 13:49:55;;;;;;;;;10.00;10.00;;;;;;;;4918023;28;45348;-76
2023/01/29 13:52:29;;;;;;;;;15.50;13.25;;;;;;;;4919026;28;45529;-76
2023/01/29 13:54:59;;;;;;;;;14.25;13.00;;;;;;;;4919275;28;45263;-76
2023/01/29 13:57:35;;;;;;;;;20.25;13.50;;;;;;;;4918201;28;45561;-76
2023/01/29 14:00:00;;;;;;;;;14.25;13.25;;;;;;;;4919342;28;45736;-76
2023/01/29 14:02:27;;;;;;;;;12.25;11.00;;;;;;;;4919546;28;45327;-77
2023/01/29 14:05:11;;;;;;;;;17.00;17.00;;;;;;;;4919756;28;45445;-76
2023/01/29 14:07:42;;;;;;;;;14.00;12.25;;;;;;;;4918956;28;45462;-77
2023/01/29 14:10:15;;;;;;;;;14.00;11.00;;;;;;;;4919205;28;46133;-77
2023/01/29 14:12:41;;;;;;;;;7.25;7.25;;;;;;;;4919066;28;45370;-76
2023/01/29 14:15:12;;;;;;;;;10.00;9.00;;;;;;;;4919062;28;45334;-77
2023/01/29 14:17:39;;;;;;;;;13.25;11.25;;;;;;;;4918793;28;45461;-74
2023/01/29 14:20:18;;;;;;;;;9.75;9.00;;;;;;;;4917200;28;46842;-76
2023/01/29 14:22:43;;;;;;;;;10.50;10.50;;;;;;;;4918431;28;45456;-78
2023/01/29 14:25:16;;;;;;;;;13.25;11.25;;;;;;;;4919001;28;45570;-77
2023/01/29 14:27:45;;;;;;;;;33.25;33.00;;;;;;;;4917567;28;45537;-76
2023/01/29 14:30:15;;;;;;;;;34.00;32.25;;;;;;;;4918820;28;46384;-76
2023/01/29 14:32:45;;;;;;;;;32.25;29.00;;;;;;;;4917713;28;45392;-75
2023/01/29 14:35:19;;;;;;;;;28.00;24.75;;;;;;;;4917373;28;45387;-76
2023/01/29 14:37:50;;;;;;;;;15.25;15.00;;;;;;;;4917239;28;45441;-75
2023/01/29 14:40:18;;;;;;;;;16.25;15.75;;;;;;;;4918507;28;46131;-76
2023/01/29 14:42:58;;;;;;;;;12.25;11.25;;;;;;;;4918696;28;45290;-75
2023/01/29 14:45:31;;;;;;;;;24.25;23.25;;;;;;;;4919571;28;45401;-76
2023/01/29 14:48:01;;;;;;;;;14.50;13.50;;;;;;;;4919940;28;45259;-77
2023/01/29 14:50:33;;;;;;;;;18.50;15.25;;;;;;;;4918513;28;45257;-76